createdAt,value
2023-06-25T00:02:20.818Z,21.42
2023-06-25T00:05:22.891Z,21.31
2023-06-25T00:08:24.758Z,21.26
2023-06-25T00:11:26.517Z,21.16
2023-06-25T00:14:28.441Z,21.20
2023-06-25T00:17:30.402Z,21.09
2023-06-25T00:20:32.189Z,21.08
2023-06-25T00:23:34.492Z,21.08
2023-06-25T00:26:36.321Z,21.12
2023-06-25T00:29:38.152Z,20.92
2023-06-25T00:32:40.052Z,20.90
2023-06-25T00:35:51.046Z,20.84
2023-06-25T00:38:52.831Z,20.80
2023-06-25T00:41:59.045Z,20.96
2023-06-25T00:45:01.254Z,21.03
2023-06-25T00:48:03.390Z,21.13
2023-06-25T00:51:05.268Z,21.20
2023-06-25T00:54:07.051Z,21.23
2023-06-25T00:57:09.761Z,21.18
2023-06-25T01:00:15.853Z,21.19
2023-06-25T01:03:39.454Z,21.20
2023-06-25T01:06:48.280Z,21.17
2023-06-25T01:09:50.546Z,21.14
2023-06-25T01:12:53.393Z,21.03
2023-06-25T01:15:55.190Z,21.10
2023-06-25T01:19:05.207Z,21.08
2023-06-25T01:22:08.788Z,20.98
2023-06-25T01:25:10.830Z,21.05
2023-06-25T01:28:12.911Z,21.03
2023-06-25T01:31:14.681Z,21.01
2023-06-25T01:34:16.521Z,20.99
2023-06-25T01:37:19.341Z,20.92
2023-06-25T01:40:21.300Z,20.91
2023-06-25T01:43:23.032Z,20.76
2023-06-25T01:46:25.018Z,20.65
2023-06-25T01:49:32.212Z,20.49
2023-06-25T01:52:35.470Z,20.46
2023-06-25T01:55:37.732Z,20.45
2023-06-25T01:58:39.842Z,20.42
2023-06-25T02:01:41.685Z,20.30
2023-06-25T02:04:44.161Z,20.32
2023-06-25T02:07:45.982Z,20.30
2023-06-25T02:10:50.634Z,20.23
2023-06-25T02:13:55.605Z,20.25
2023-06-25T02:17:00.344Z,20.22
2023-06-25T02:20:05.800Z,20.18
2023-06-25T02:23:08.670Z,20.22
2023-06-25T02:26:10.812Z,20.17
2023-06-25T02:29:12.567Z,20.19
2023-06-25T02:32:14.419Z,20.05
2023-06-25T02:35:17.189Z,20.06
2023-06-25T02:38:19.113Z,20.08
2023-06-25T02:41:20.929Z,19.99
2023-06-25T02:44:22.683Z,20.00
2023-06-25T02:47:24.659Z,20.00
2023-06-25T02:50:26.924Z,19.95
2023-06-25T02:53:28.874Z,20.01
2023-06-25T02:56:30.887Z,19.98
2023-06-25T02:59:32.757Z,20.03
2023-06-25T03:02:34.662Z,19.98
2023-06-25T03:05:36.697Z,20.04
2023-06-25T03:08:38.877Z,20.08
2023-06-25T03:11:40.605Z,20.01
2023-06-25T03:14:42.728Z,20.09
2023-06-25T03:17:45.444Z,20.11
2023-06-25T03:20:47.263Z,20.18
2023-06-25T03:23:49.008Z,20.15
2023-06-25T03:26:51.113Z,20.04
2023-06-25T03:29:52.901Z,20.13
2023-06-25T03:32:54.719Z,20.10
2023-06-25T03:35:56.498Z,20.06
2023-06-25T03:38:58.402Z,20.08
2023-06-25T03:42:00.494Z,20.04
2023-06-25T03:45:02.406Z,20.11
2023-06-25T03:48:04.475Z,20.02
2023-06-25T03:51:06.330Z,20.16
2023-06-25T03:54:08.158Z,20.14
2023-06-25T03:57:09.908Z,20.26
2023-06-25T04:00:12.271Z,20.16
2023-06-25T04:03:14.118Z,20.29
2023-06-25T04:06:15.825Z,20.29
2023-06-25T04:09:17.677Z,20.30
2023-06-25T04:12:19.509Z,20.36
2023-06-25T04:15:21.243Z,20.30
2023-06-25T04:18:23.036Z,20.40
2023-06-25T04:21:24.904Z,20.39
2023-06-25T04:24:26.894Z,20.45
2023-06-25T04:27:28.628Z,20.50
2023-06-25T04:30:30.411Z,20.56
2023-06-25T04:33:32.252Z,20.61
2023-06-25T04:36:34.533Z,20.60
2023-06-25T04:39:36.347Z,20.66
2023-06-25T04:42:38.144Z,20.62
2023-06-25T04:45:40.122Z,20.45
2023-06-25T04:48:45.354Z,20.51
2023-06-25T04:51:47.236Z,20.48
2023-06-25T04:54:49.328Z,20.35
2023-06-25T04:57:51.267Z,20.43
2023-06-25T05:00:53.010Z,20.61
2023-06-25T05:03:54.964Z,20.57
2023-06-25T05:06:57.364Z,20.60
2023-06-25T05:09:59.111Z,20.71
2023-06-25T05:13:01.333Z,20.49
2023-06-25T05:16:04.312Z,20.71
2023-06-25T05:19:06.093Z,20.76
2023-06-25T05:22:07.886Z,20.80
2023-06-25T05:25:10.035Z,20.82
2023-06-25T05:28:12.465Z,20.86
2023-06-25T05:31:14.221Z,20.93
2023-06-25T05:34:16.094Z,20.93
2023-06-25T05:37:17.887Z,21.03
2023-06-25T05:40:19.860Z,21.10
2023-06-25T05:43:21.580Z,21.04
2023-06-25T05:46:23.410Z,21.00
2023-06-25T05:49:25.231Z,21.10
2023-06-25T05:52:27.439Z,21.16
2023-06-25T05:55:29.216Z,21.24
2023-06-25T05:58:30.952Z,21.31
2023-06-25T06:01:32.859Z,21.39
2023-06-25T06:04:35.362Z,21.56
2023-06-25T06:07:37.266Z,21.64
2023-06-25T06:10:39.022Z,21.70
2023-06-25T06:13:40.801Z,21.84
2023-06-25T06:16:42.600Z,21.82
2023-06-25T06:19:44.372Z,21.95
2023-06-25T06:22:46.696Z,21.93
2023-06-25T06:25:48.449Z,21.87
2023-06-25T06:28:51.091Z,22.10
2023-06-25T06:31:52.999Z,22.20
2023-06-25T06:34:54.960Z,22.35
2023-06-25T06:37:56.852Z,22.36
2023-06-25T06:40:59.274Z,22.32
2023-06-25T06:44:14.126Z,22.36
2023-06-25T06:47:15.963Z,22.15
2023-06-25T06:50:17.783Z,22.52
2023-06-25T06:53:19.720Z,22.61
2023-06-25T06:56:21.521Z,22.61
2023-06-25T06:59:23.441Z,22.46
2023-06-25T07:02:25.234Z,22.62
2023-06-25T07:05:27.542Z,22.63
2023-06-25T07:08:29.892Z,22.72
2023-06-25T07:11:31.854Z,22.49
2023-06-25T07:14:33.637Z,22.31
2023-06-25T07:17:35.483Z,22.40
2023-06-25T07:20:37.317Z,22.46
2023-06-25T07:23:39.358Z,22.53
2023-06-25T07:26:41.422Z,22.94
2023-06-25T07:29:43.581Z,23.21
2023-06-25T07:32:46.231Z,23.44
2023-06-25T07:35:48.414Z,23.66
2023-06-25T07:38:50.169Z,23.81
2023-06-25T07:41:52.057Z,23.77
2023-06-25T07:44:57.218Z,23.82
2023-06-25T07:47:59.395Z,23.11
2023-06-25T07:51:01.316Z,24.11
2023-06-25T07:54:03.186Z,24.43
2023-06-25T07:57:05.401Z,24.62
2023-06-25T08:00:08.166Z,24.91
2023-06-25T08:03:10.212Z,24.27
2023-06-25T08:06:12.026Z,25.32
2023-06-25T08:09:13.782Z,25.83
2023-06-25T08:12:16.227Z,25.61
2023-06-25T08:15:18.446Z,24.51
2023-06-25T08:18:20.354Z,25.59
2023-06-25T08:21:22.145Z,25.10
2023-06-25T08:24:25.900Z,25.05
2023-06-25T08:27:28.956Z,25.00
2023-06-25T08:30:31.015Z,24.74
2023-06-25T08:33:33.788Z,25.87
2023-06-25T08:36:37.545Z,26.02
2023-06-25T08:39:39.520Z,26.75
2023-06-25T08:42:43.565Z,25.83
2023-06-25T08:45:47.617Z,26.46
2023-06-25T08:48:55.721Z,26.80
2023-06-25T08:51:57.940Z,27.09
2023-06-25T08:54:59.763Z,27.39
2023-06-25T08:58:01.764Z,27.17
2023-06-25T09:01:05.185Z,27.69
2023-06-25T09:04:07.206Z,28.06
2023-06-25T09:07:13.238Z,28.20
2023-06-25T09:10:15.057Z,28.37
2023-06-25T09:13:22.042Z,28.29
2023-06-25T09:16:25.852Z,28.06
2023-06-25T09:19:29.410Z,27.81
2023-06-25T09:22:31.393Z,27.30
2023-06-25T09:25:33.285Z,27.01
2023-06-25T09:28:35.155Z,26.89
2023-06-25T09:31:37.150Z,27.31
2023-06-25T09:34:43.125Z,26.97
2023-06-25T09:37:44.909Z,26.65
2023-06-25T09:40:47.861Z,27.30
2023-06-25T09:43:54.922Z,26.69
2023-06-25T09:47:07.373Z,27.55
2023-06-25T09:50:24.917Z,26.06
2023-06-25T09:53:29.066Z,27.60
2023-06-25T09:56:33.854Z,26.12
2023-06-25T09:59:38.690Z,27.02
2023-06-25T10:02:43.096Z,25.68
2023-06-25T10:05:45.468Z,25.95
2023-06-25T10:08:51.942Z,26.63
2023-06-25T10:11:57.683Z,26.62
2023-06-25T10:15:03.195Z,26.31
2023-06-25T10:18:07.240Z,26.92
2023-06-25T10:21:09.210Z,27.05
2023-06-25T10:24:11.077Z,26.72
2023-06-25T10:27:21.880Z,25.87
2023-06-25T10:30:23.689Z,26.42
2023-06-25T10:33:25.479Z,27.24
2023-06-25T10:36:27.311Z,26.96
2023-06-25T10:39:40.395Z,26.83
2023-06-25T10:42:42.456Z,26.17
2023-06-25T10:45:53.499Z,26.96
2023-06-25T10:48:55.332Z,27.32
2023-06-25T10:52:00.937Z,27.33
2023-06-25T10:55:11.600Z,27.26
2023-06-25T10:58:21.335Z,27.05
2023-06-25T11:01:23.248Z,27.83
2023-06-25T11:04:26.704Z,28.13
2023-06-25T11:07:28.628Z,28.48
2023-06-25T11:10:30.631Z,28.64
2023-06-25T11:13:33.286Z,28.44
2023-06-25T11:16:35.093Z,28.68
2023-06-25T11:19:36.958Z,28.55
2023-06-25T11:22:45.055Z,27.46
2023-06-25T11:25:47.177Z,27.25
2023-06-25T11:28:50.888Z,27.97
2023-06-25T11:31:53.833Z,28.20
2023-06-25T11:34:56.171Z,28.67
2023-06-25T11:37:57.921Z,29.32
2023-06-25T11:40:59.999Z,28.41
2023-06-25T11:44:01.844Z,29.25
2023-06-25T11:47:03.725Z,29.22
2023-06-25T11:50:05.702Z,28.90
2023-06-25T11:53:07.623Z,29.50
2023-06-25T11:56:09.381Z,29.02
2023-06-25T11:59:12.128Z,28.15
2023-06-25T12:02:14.645Z,28.14
2023-06-25T12:05:16.788Z,28.57
2023-06-25T12:08:18.800Z,28.87
2023-06-25T12:11:20.898Z,29.07
2023-06-25T12:14:23.173Z,28.88
2023-06-25T12:17:24.891Z,28.83
2023-06-25T12:20:28.785Z,29.14
2023-06-25T12:23:30.600Z,29.36
2023-06-25T12:26:32.357Z,29.68
2023-06-25T12:29:34.279Z,29.88
2023-06-25T12:32:38.503Z,29.72
2023-06-25T12:35:41.863Z,29.49
2023-06-25T12:38:46.810Z,29.87
2023-06-25T12:41:49.001Z,29.98
2023-06-25T12:44:50.909Z,29.21
2023-06-25T12:47:53.519Z,29.46
2023-06-25T12:50:55.625Z,29.75
2023-06-25T12:53:57.792Z,28.81
2023-06-25T12:56:59.797Z,29.24
2023-06-25T13:00:05.510Z,29.71
2023-06-25T13:03:07.486Z,29.97
2023-06-25T13:06:09.464Z,29.09
2023-06-25T13:09:11.230Z,28.64
2023-06-25T13:12:12.975Z,29.42
2023-06-25T13:15:14.811Z,30.03
2023-06-25T13:18:16.634Z,29.64
2023-06-25T13:21:18.462Z,28.37
2023-06-25T13:24:20.173Z,29.56
2023-06-25T13:27:21.958Z,29.78
2023-06-25T13:30:26.836Z,29.45
2023-06-25T13:33:30.251Z,29.37
2023-06-25T13:36:32.300Z,29.08
2023-06-25T13:39:34.112Z,29.27
2023-06-25T13:42:35.898Z,29.12
2023-06-25T13:45:37.993Z,29.41
2023-06-25T13:48:39.878Z,29.41
2023-06-25T13:51:41.668Z,28.07
2023-06-25T13:54:43.546Z,27.99
2023-06-25T13:57:45.433Z,28.04
2023-06-25T14:00:47.365Z,28.64
2023-06-25T14:03:49.225Z,29.03
2023-06-25T14:06:51.434Z,29.11
2023-06-25T14:09:53.787Z,29.45
2023-06-25T14:12:55.632Z,29.11
2023-06-25T14:16:10.588Z,29.28
2023-06-25T14:19:18.055Z,29.48
2023-06-25T14:22:19.801Z,29.46
2023-06-25T14:25:21.784Z,28.92
2023-06-25T14:28:25.051Z,28.58
2023-06-25T14:31:28.397Z,29.29
2023-06-25T14:34:30.178Z,29.19
2023-06-25T14:37:32.038Z,29.39
2023-06-25T14:40:33.929Z,29.38
2023-06-25T14:43:35.988Z,29.62
2023-06-25T14:46:37.878Z,29.50
2023-06-25T14:49:40.268Z,29.25
2023-06-25T14:52:42.152Z,29.22
2023-06-25T14:55:44.951Z,29.54
2023-06-25T14:58:46.855Z,29.10
2023-06-25T15:01:48.707Z,29.21
2023-06-25T15:04:50.572Z,29.34
2023-06-25T15:07:52.445Z,29.38
2023-06-25T15:10:54.195Z,29.30
2023-06-25T15:13:59.019Z,29.24
2023-06-25T15:17:01.260Z,29.09
2023-06-25T15:20:06.407Z,29.13
2023-06-25T15:23:08.587Z,29.00
2023-06-25T15:26:10.492Z,28.76
2023-06-25T15:29:12.347Z,28.74
2023-06-25T15:32:14.160Z,28.81
2023-06-25T15:35:16.013Z,28.72
2023-06-25T15:38:17.752Z,28.72
2023-06-25T15:41:19.645Z,28.56
2023-06-25T15:44:21.561Z,28.43
2023-06-25T15:47:23.371Z,28.51
2023-06-25T15:50:25.323Z,28.23
2023-06-25T15:53:27.434Z,28.41
2023-06-25T15:56:29.223Z,28.25
2023-06-25T15:59:31.650Z,28.22
2023-06-25T16:02:33.461Z,28.29
2023-06-25T16:05:35.713Z,28.12
2023-06-25T16:08:37.715Z,28.06
2023-06-25T16:11:39.818Z,28.08
2023-06-25T16:14:41.570Z,27.93
2023-06-25T16:17:43.367Z,27.85
2023-06-25T16:20:45.608Z,27.87
2023-06-25T16:23:48.228Z,27.81
2023-06-25T16:26:50.011Z,27.64
2023-06-25T16:29:52.384Z,27.58
2023-06-25T16:32:56.500Z,27.47
2023-06-25T16:35:58.336Z,27.50
2023-06-25T16:39:00.363Z,27.41
2023-06-25T16:42:02.142Z,27.30
2023-06-25T16:45:04.010Z,27.26
2023-06-25T16:48:07.852Z,27.17
2023-06-25T16:51:09.723Z,27.11
2023-06-25T16:54:12.220Z,27.03
2023-06-25T16:57:14.036Z,26.92
2023-06-25T17:00:16.143Z,26.86
2023-06-25T17:03:19.034Z,26.90
2023-06-25T17:06:21.134Z,26.80
2023-06-25T17:09:22.881Z,26.74
2023-06-25T17:12:24.735Z,26.65
2023-06-25T17:15:26.548Z,26.57
2023-06-25T17:18:28.451Z,26.61
2023-06-25T17:21:30.349Z,26.51
2023-06-25T17:24:32.407Z,26.47
2023-06-25T17:27:34.372Z,26.33
2023-06-25T17:30:36.212Z,26.12
2023-06-25T17:33:38.001Z,26.10
2023-06-25T17:36:40.315Z,26.07
2023-06-25T17:39:42.240Z,25.96
2023-06-25T17:42:44.043Z,25.87
2023-06-25T17:45:45.947Z,25.76
2023-06-25T17:48:48.494Z,25.66
2023-06-25T17:51:50.453Z,25.44
2023-06-25T17:54:52.424Z,24.96
2023-06-25T17:57:54.247Z,24.86
2023-06-25T18:00:56.112Z,24.86
2023-06-25T18:03:57.914Z,24.80
2023-06-25T18:06:59.818Z,24.75
2023-06-25T18:10:01.710Z,24.70
2023-06-25T18:13:03.687Z,24.58
2023-06-25T18:16:05.520Z,24.46
2023-06-25T18:19:07.333Z,24.36
2023-06-25T18:22:09.099Z,24.26
2023-06-25T18:25:10.899Z,24.18
2023-06-25T18:28:12.642Z,24.05
2023-06-25T18:31:14.619Z,23.96
2023-06-25T18:34:16.480Z,23.87
2023-06-25T18:37:18.239Z,23.71
2023-06-25T18:40:20.053Z,23.62
2023-06-25T18:43:22.455Z,23.52
2023-06-25T18:46:24.163Z,23.44
2023-06-25T18:49:26.052Z,23.33
2023-06-25T18:52:27.830Z,23.25
2023-06-25T18:55:29.702Z,23.19
2023-06-25T18:58:31.581Z,23.18
2023-06-25T19:01:34.636Z,22.86
2023-06-25T19:04:37.979Z,22.83
2023-06-25T19:07:40.293Z,22.64
2023-06-25T19:10:42.961Z,22.60
2023-06-25T19:13:44.986Z,22.39
2023-06-25T19:16:46.845Z,22.45
2023-06-25T19:19:48.734Z,22.13
2023-06-25T19:23:09.154Z,21.90
2023-06-25T19:26:12.541Z,21.86
2023-06-25T19:29:14.701Z,21.93
2023-06-25T19:32:16.725Z,21.98
2023-06-25T19:35:21.223Z,21.97
2023-06-25T19:38:23.155Z,21.99
2023-06-25T19:41:25.091Z,21.95
2023-06-25T19:44:26.838Z,21.82
2023-06-25T19:47:28.832Z,21.78
2023-06-25T19:50:31.174Z,21.84
2023-06-25T19:53:34.391Z,21.81
2023-06-25T19:56:36.529Z,21.56
2023-06-25T19:59:38.604Z,21.41
2023-06-25T20:02:40.400Z,21.41
2023-06-25T20:05:42.383Z,21.49
2023-06-25T20:08:44.274Z,21.47
2023-06-25T20:11:46.255Z,21.42
2023-06-25T20:14:48.326Z,21.23
2023-06-25T20:17:53.682Z,21.20
2023-06-25T20:20:55.568Z,21.04
2023-06-25T20:23:57.436Z,21.20
2023-06-25T20:27:00.127Z,21.19
2023-06-25T20:30:02.197Z,21.19
2023-06-25T20:33:06.353Z,21.14
2023-06-25T20:36:08.321Z,21.18
2023-06-25T20:39:10.035Z,21.11
2023-06-25T20:42:11.779Z,21.05
2023-06-25T20:45:13.592Z,21.08
2023-06-25T20:48:15.447Z,21.07
2023-06-25T20:51:17.818Z,21.04
2023-06-25T20:54:19.629Z,20.89
2023-06-25T20:57:21.503Z,20.85
2023-06-25T21:00:24.053Z,20.82
2023-06-25T21:03:25.999Z,20.77
2023-06-25T21:06:27.989Z,20.68
2023-06-25T21:09:29.810Z,20.66
2023-06-25T21:12:32.462Z,20.61
2023-06-25T21:15:34.300Z,20.46
2023-06-25T21:18:36.068Z,20.47
2023-06-25T21:21:37.907Z,20.48
2023-06-25T21:24:39.751Z,20.47
2023-06-25T21:27:41.549Z,20.42
2023-06-25T21:30:43.433Z,20.32
2023-06-25T21:33:45.230Z,20.34
2023-06-25T21:36:46.992Z,20.22
2023-06-25T21:39:48.842Z,20.18
2023-06-25T21:42:50.664Z,20.18
2023-06-25T21:45:52.565Z,20.13
2023-06-25T21:48:54.324Z,20.11
2023-06-25T21:51:56.106Z,20.06
2023-06-25T21:54:57.864Z,20.05
2023-06-25T21:57:59.680Z,20.04
2023-06-25T22:01:01.571Z,19.95
2023-06-25T22:04:03.369Z,19.84
2023-06-25T22:07:05.297Z,19.72
2023-06-25T22:10:07.228Z,19.72
2023-06-25T22:13:09.171Z,19.77
2023-06-25T22:16:10.968Z,19.72
2023-06-25T22:19:13.256Z,19.70
2023-06-25T22:22:15.087Z,19.68
2023-06-25T22:25:16.877Z,19.68
2023-06-25T22:28:18.623Z,19.59
2023-06-25T22:31:20.427Z,19.29
2023-06-25T22:34:22.717Z,19.31
2023-06-25T22:37:24.490Z,19.34
2023-06-25T22:40:26.238Z,19.25
2023-06-25T22:43:27.958Z,19.19
2023-06-25T22:46:30.070Z,19.21
2023-06-25T22:49:34.699Z,19.25
2023-06-25T22:52:36.510Z,19.17
2023-06-25T22:55:38.425Z,19.20
2023-06-25T22:58:40.167Z,19.21
2023-06-25T23:01:41.986Z,19.19
2023-06-25T23:04:44.077Z,19.16
2023-06-25T23:07:45.926Z,19.09
2023-06-25T23:10:47.719Z,18.77
2023-06-25T23:13:49.790Z,18.66
2023-06-25T23:16:51.625Z,18.56
2023-06-25T23:19:54.077Z,18.40
2023-06-25T23:22:56.091Z,18.47
2023-06-25T23:26:00.493Z,18.49
2023-06-25T23:29:02.236Z,18.55
2023-06-25T23:32:05.661Z,18.57
2023-06-25T23:35:10.594Z,18.57
2023-06-25T23:38:12.585Z,18.55
2023-06-25T23:41:14.367Z,18.53
2023-06-25T23:44:16.259Z,18.54
2023-06-25T23:47:18.123Z,18.51
2023-06-25T23:50:19.964Z,18.32
2023-06-25T23:53:21.729Z,17.88
2023-06-25T23:56:24.898Z,17.56
2023-06-25T23:59:26.656Z,17.44
